RON754 PLCH-NGTA
Flight info
| Callsign | RON754 |
|---|---|
| Flight time | N/A |
| Altitude | 34000 |
| Route | XI DCT 01N160W 00N166W 01S170W 01S175W 00N180E DCT BO |
| Aircraft | B738/M-SDE2E3FGHIRWXY/LB1 |
Departure
| Time | 2026-04-30 03:04 |
|---|---|
| Airport | Cassidy International Airport (PLCH) |
Arrival
| Time | N/A |
|---|---|
| Airport | Bonriki International Airport (NGTA) |
| Time | Latitude | Longitude | Altitude | Speed | Heading |
|---|---|---|---|---|---|
| 2026-04-30 02:54 | 1.98496 | -157.35450 | 21 ft | 0 kts | 319° |
| 2026-04-30 03:00 | 1.98501 | -157.35454 | 20 ft | 3 kts | 319° |
| 2026-04-30 03:01 | 1.98534 | -157.35465 | 19 ft | 7 kts | 358° |
| 2026-04-30 03:01 | 1.98575 | -157.35433 | 17 ft | 9 kts | 48° |
| 2026-04-30 03:01 | 1.98626 | -157.35430 | 16 ft | 9 kts | 290° |
| 2026-04-30 03:01 | 1.98628 | -157.35508 | 16 ft | 13 kts | 270° |
| 2026-04-30 03:02 | 1.98628 | -157.35613 | 16 ft | 17 kts | 270° |
| 2026-04-30 03:02 | 1.98630 | -157.35746 | 17 ft | 20 kts | 270° |
| 2026-04-30 03:02 | 1.98616 | -157.35880 | 19 ft | 13 kts | 242° |
| 2026-04-30 03:02 | 1.98628 | -157.35917 | 21 ft | 6 kts | 30° |
| 2026-04-30 03:03 | 1.98631 | -157.35878 | 19 ft | 5 kts | 90° |
| 2026-04-30 03:03 | 1.98628 | -157.35424 | 16 ft | 90 kts | 90° |
| 2026-04-30 03:03 | 1.98626 | -157.34601 | 19 ft | 145 kts | 90° |
| 2026-04-30 03:04 | 1.98636 | -157.33447 | 128 ft | 181 kts | 89° |
| 2026-04-30 03:04 | 1.98629 | -157.32185 | 848 ft | 176 kts | 90° |
| 2026-04-30 03:04 | 1.98619 | -157.30983 | 1618 ft | 173 kts | 89° |
| 2026-04-30 03:04 | 1.98628 | -157.29716 | 1934 ft | 195 kts | 89° |
| 2026-04-30 03:05 | 1.98638 | -157.28314 | 2188 ft | 212 kts | 89° |
| 2026-04-30 03:05 | 1.98563 | -157.26800 | 2363 ft | 231 kts | 105° |
| 2026-04-30 03:05 | 1.97627 | -157.25489 | 2744 ft | 242 kts | 144° |
| 2026-04-30 03:05 | 1.95966 | -157.24951 | 2996 ft | 264 kts | 176° |
| 2026-04-30 03:06 | 1.94132 | -157.25280 | 3546 ft | 275 kts | 202° |
| 2026-04-30 03:06 | 1.92587 | -157.26393 | 4293 ft | 278 kts | 231° |
| 2026-04-30 03:06 | 1.91718 | -157.28138 | 4989 ft | 282 kts | 251° |
| 2026-04-30 03:06 | 1.91174 | -157.30030 | 5653 ft | 286 kts | 255° |
| 2026-04-30 03:07 | 1.90676 | -157.31968 | 6293 ft | 290 kts | 255° |
| 2026-04-30 03:07 | 1.90156 | -157.33923 | 6938 ft | 292 kts | 254° |
| 2026-04-30 03:07 | 1.89599 | -157.35889 | 7582 ft | 295 kts | 253° |
| 2026-04-30 03:07 | 1.89012 | -157.37859 | 8224 ft | 297 kts | 252° |
| 2026-04-30 03:08 | 1.88397 | -157.39841 | 8869 ft | 300 kts | 252° |
| 2026-04-30 03:08 | 1.87758 | -157.41842 | 9512 ft | 303 kts | 251° |
| 2026-04-30 03:08 | 1.87105 | -157.43848 | 10086 ft | 307 kts | 251° |
| 2026-04-30 03:08 | 1.86416 | -157.45935 | 10249 ft | 327 kts | 251° |
| 2026-04-30 03:09 | 1.85690 | -157.48112 | 10589 ft | 338 kts | 251° |
| 2026-04-30 03:09 | 1.84935 | -157.50363 | 11126 ft | 342 kts | 251° |
| 2026-04-30 03:09 | 1.84175 | -157.52618 | 11714 ft | 344 kts | 250° |
| 2026-04-30 03:09 | 1.83404 | -157.54898 | 12276 ft | 347 kts | 251° |
| 2026-04-30 03:10 | 1.82628 | -157.57200 | 12818 ft | 351 kts | 251° |
| 2026-04-30 03:10 | 1.81846 | -157.59521 | 13376 ft | 354 kts | 251° |
| 2026-04-30 03:10 | 1.81053 | -157.61867 | 13891 ft | 357 kts | 251° |
| 2026-04-30 03:10 | 1.80253 | -157.64226 | 14407 ft | 359 kts | 251° |
| 2026-04-30 03:11 | 1.79451 | -157.66591 | 14928 ft | 360 kts | 251° |
| 2026-04-30 03:11 | 1.78641 | -157.68964 | 15436 ft | 362 kts | 251° |
| 2026-04-30 03:11 | 1.77824 | -157.71357 | 15912 ft | 365 kts | 251° |
| 2026-04-30 03:11 | 1.77006 | -157.73759 | 16402 ft | 367 kts | 251° |
| 2026-04-30 03:12 | 1.76179 | -157.76187 | 16892 ft | 369 kts | 251° |
| 2026-04-30 03:12 | 1.75355 | -157.78617 | 17401 ft | 370 kts | 252° |
| 2026-04-30 03:12 | 1.74529 | -157.81058 | 17926 ft | 371 kts | 252° |
| 2026-04-30 03:12 | 1.73699 | -157.83498 | 18387 ft | 372 kts | 252° |
| 2026-04-30 03:13 | 1.72860 | -157.85959 | 18796 ft | 374 kts | 251° |
| 2026-04-30 03:13 | 1.72022 | -157.88422 | 19209 ft | 376 kts | 251° |
| 2026-04-30 03:13 | 1.71191 | -157.90866 | 19628 ft | 377 kts | 251° |
| 2026-04-30 03:13 | 1.70344 | -157.93354 | 20052 ft | 378 kts | 250° |
| 2026-04-30 03:14 | 1.69497 | -157.95847 | 20453 ft | 379 kts | 250° |
| 2026-04-30 03:14 | 1.68643 | -157.98359 | 20827 ft | 382 kts | 250° |
| 2026-04-30 03:14 | 1.67785 | -158.00882 | 21191 ft | 385 kts | 250° |
| 2026-04-30 03:14 | 1.66922 | -158.03422 | 21578 ft | 386 kts | 249° |
| 2026-04-30 03:15 | 1.66058 | -158.05964 | 21963 ft | 388 kts | 249° |
| 2026-04-30 03:15 | 1.65184 | -158.08532 | 22330 ft | 390 kts | 249° |
| 2026-04-30 03:15 | 1.64320 | -158.11075 | 22692 ft | 392 kts | 249° |
| 2026-04-30 03:15 | 1.63441 | -158.13658 | 23045 ft | 394 kts | 249° |
| 2026-04-30 03:16 | 1.62557 | -158.16260 | 23393 ft | 396 kts | 248° |
| 2026-04-30 03:16 | 1.61668 | -158.18873 | 23686 ft | 398 kts | 248° |
| 2026-04-30 03:16 | 1.60778 | -158.21492 | 23989 ft | 399 kts | 248° |
| 2026-04-30 03:16 | 1.59885 | -158.24120 | 24286 ft | 400 kts | 249° |
| 2026-04-30 03:17 | 1.58987 | -158.26761 | 24584 ft | 402 kts | 249° |
| 2026-04-30 03:17 | 1.58087 | -158.29408 | 24867 ft | 403 kts | 249° |
| 2026-04-30 03:17 | 1.57182 | -158.32071 | 25151 ft | 405 kts | 249° |
| 2026-04-30 03:17 | 1.56276 | -158.34739 | 25432 ft | 406 kts | 249° |
| 2026-04-30 03:18 | 1.55366 | -158.37412 | 25720 ft | 407 kts | 249° |
| 2026-04-30 03:18 | 1.54450 | -158.40103 | 25996 ft | 409 kts | 249° |
| 2026-04-30 03:18 | 1.53533 | -158.42799 | 26273 ft | 410 kts | 249° |
| 2026-04-30 03:18 | 1.52610 | -158.45509 | 26549 ft | 412 kts | 249° |
| 2026-04-30 03:19 | 1.51687 | -158.48224 | 26809 ft | 413 kts | 249° |
| 2026-04-30 03:19 | 1.50757 | -158.50957 | 27084 ft | 415 kts | 249° |
| 2026-04-30 03:19 | 1.49828 | -158.53688 | 27349 ft | 416 kts | 249° |
| 2026-04-30 03:19 | 1.48896 | -158.56428 | 27608 ft | 417 kts | 249° |
| 2026-04-30 03:20 | 1.47960 | -158.59179 | 27852 ft | 419 kts | 249° |
| 2026-04-30 03:20 | 1.47022 | -158.61936 | 28103 ft | 420 kts | 249° |
| 2026-04-30 03:20 | 1.46089 | -158.64677 | 28342 ft | 422 kts | 250° |
| 2026-04-30 03:20 | 1.45132 | -158.67488 | 28581 ft | 423 kts | 250° |
| 2026-04-30 03:21 | 1.44193 | -158.70249 | 28812 ft | 425 kts | 250° |
| 2026-04-30 03:21 | 1.43240 | -158.73050 | 29055 ft | 426 kts | 250° |
| 2026-04-30 03:21 | 1.42285 | -158.75856 | 29268 ft | 427 kts | 250° |
| 2026-04-30 03:21 | 1.41325 | -158.78676 | 29494 ft | 429 kts | 250° |
| 2026-04-30 03:22 | 1.40361 | -158.81510 | 29716 ft | 430 kts | 250° |
| 2026-04-30 03:22 | 1.39395 | -158.84346 | 29928 ft | 432 kts | 250° |
| 2026-04-30 03:22 | 1.38426 | -158.87192 | 30120 ft | 433 kts | 250° |
| 2026-04-30 03:22 | 1.37456 | -158.90044 | 30297 ft | 434 kts | 250° |
| 2026-04-30 03:23 | 1.36483 | -158.92902 | 30481 ft | 435 kts | 250° |
| 2026-04-30 03:23 | 1.35507 | -158.95767 | 30668 ft | 436 kts | 250° |
| 2026-04-30 03:23 | 1.34544 | -158.98596 | 30835 ft | 437 kts | 250° |
| 2026-04-30 03:23 | 1.33561 | -159.01483 | 31001 ft | 438 kts | 250° |
| 2026-04-30 03:24 | 1.32578 | -159.04372 | 31165 ft | 439 kts | 250° |
| 2026-04-30 03:24 | 1.31591 | -159.07270 | 31330 ft | 441 kts | 250° |
| 2026-04-30 03:24 | 1.30603 | -159.10172 | 31496 ft | 442 kts | 250° |
| 2026-04-30 03:24 | 1.29612 | -159.13082 | 31652 ft | 443 kts | 250° |
| 2026-04-30 03:25 | 1.28618 | -159.16000 | 31815 ft | 444 kts | 250° |
| 2026-04-30 03:25 | 1.27621 | -159.18928 | 31958 ft | 445 kts | 250° |
| 2026-04-30 03:25 | 1.26624 | -159.21855 | 32104 ft | 446 kts | 250° |
| 2026-04-30 03:25 | 1.25622 | -159.24796 | 32250 ft | 447 kts | 250° |
| 2026-04-30 03:26 | 1.24618 | -159.27746 | 32397 ft | 448 kts | 250° |
| 2026-04-30 03:26 | 1.23627 | -159.30655 | 32535 ft | 449 kts | 250° |
| 2026-04-30 03:26 | 1.22604 | -159.33657 | 32679 ft | 450 kts | 250° |
| 2026-04-30 03:26 | 1.21595 | -159.36620 | 32812 ft | 451 kts | 250° |
| 2026-04-30 03:27 | 1.20582 | -159.39596 | 32976 ft | 452 kts | 250° |
| 2026-04-30 03:27 | 1.19583 | -159.42527 | 33131 ft | 452 kts | 250° |
| 2026-04-30 03:27 | 1.18568 | -159.45508 | 33274 ft | 453 kts | 250° |
| 2026-04-30 03:27 | 1.17552 | -159.48488 | 33402 ft | 454 kts | 250° |
| 2026-04-30 03:28 | 1.16531 | -159.51486 | 33530 ft | 455 kts | 251° |
| 2026-04-30 03:28 | 1.15509 | -159.54485 | 33705 ft | 455 kts | 251° |
| 2026-04-30 03:28 | 1.14491 | -159.57473 | 33853 ft | 454 kts | 251° |
| 2026-04-30 03:28 | 1.13470 | -159.60470 | 33842 ft | 457 kts | 251° |
| 2026-04-30 03:29 | 1.11416 | -159.66498 | 33867 ft | 460 kts | 251° |
| 2026-04-30 03:29 | 1.09349 | -159.72564 | 33866 ft | 462 kts | 251° |
| 2026-04-30 03:30 | 1.07267 | -159.78672 | 33867 ft | 465 kts | 251° |
| 2026-04-30 03:30 | 1.05532 | -159.83763 | 33858 ft | 466 kts | 251° |
| 2026-04-30 03:31 | 1.03443 | -159.89896 | 33854 ft | 466 kts | 251° |
| 2026-04-30 03:31 | 1.01018 | -159.97011 | 33851 ft | 464 kts | 251° |
| 2026-04-30 03:32 | 0.99517 | -160.02148 | 33856 ft | 463 kts | 259° |
| 2026-04-30 03:32 | 0.98473 | -160.08483 | 33858 ft | 462 kts | 261° |
| 2026-04-30 03:33 | 0.97495 | -160.14818 | 33860 ft | 460 kts | 260° |
| 2026-04-30 03:33 | 0.96486 | -160.21124 | 33867 ft | 458 kts | 260° |
| 2026-04-30 03:34 | 0.95450 | -160.27409 | 33864 ft | 457 kts | 260° |
| 2026-04-30 03:34 | 0.94410 | -160.33665 | 33860 ft | 457 kts | 260° |
| 2026-04-30 03:35 | 0.93365 | -160.39941 | 33865 ft | 457 kts | 260° |
| 2026-04-30 03:35 | 0.92330 | -160.46163 | 33863 ft | 457 kts | 260° |
| 2026-04-30 03:36 | 0.91288 | -160.52437 | 33863 ft | 458 kts | 260° |
| 2026-04-30 03:36 | 0.90243 | -160.58720 | 33866 ft | 459 kts | 260° |
| 2026-04-30 03:37 | 0.89196 | -160.65021 | 33864 ft | 460 kts | 260° |
| 2026-04-30 03:37 | 0.88149 | -160.71323 | 33865 ft | 460 kts | 260° |
| 2026-04-30 03:38 | 0.87098 | -160.77645 | 33866 ft | 461 kts | 260° |
| 2026-04-30 03:38 | 0.86051 | -160.83938 | 33863 ft | 461 kts | 260° |
| 2026-04-30 03:39 | 0.85001 | -160.90258 | 33863 ft | 461 kts | 260° |
| 2026-04-30 03:39 | 0.83949 | -160.96579 | 33862 ft | 461 kts | 260° |
| 2026-04-30 03:40 | 0.82901 | -161.02885 | 33864 ft | 460 kts | 260° |
| 2026-04-30 03:40 | 0.81852 | -161.09190 | 33864 ft | 460 kts | 260° |
| 2026-04-30 03:41 | 0.80804 | -161.15492 | 33858 ft | 459 kts | 260° |
| 2026-04-30 03:41 | 0.79758 | -161.21778 | 33866 ft | 458 kts | 260° |
| 2026-04-30 03:42 | 0.78712 | -161.28064 | 33862 ft | 458 kts | 260° |
| 2026-04-30 03:42 | 0.77669 | -161.34333 | 33865 ft | 457 kts | 260° |
| 2026-04-30 03:43 | 0.76632 | -161.40565 | 33865 ft | 457 kts | 260° |
| 2026-04-30 03:43 | 0.75590 | -161.46821 | 33862 ft | 456 kts | 260° |
| 2026-04-30 03:44 | 0.74548 | -161.53080 | 33866 ft | 456 kts | 260° |
| 2026-04-30 03:44 | 0.73508 | -161.59331 | 33862 ft | 456 kts | 260° |
| 2026-04-30 03:45 | 0.72466 | -161.65588 | 33861 ft | 456 kts | 260° |
| 2026-04-30 03:45 | 0.71426 | -161.71839 | 33864 ft | 456 kts | 260° |
| 2026-04-30 03:46 | 0.70385 | -161.78091 | 33865 ft | 456 kts | 260° |
| 2026-04-30 03:46 | 0.69341 | -161.84358 | 33860 ft | 457 kts | 260° |
| 2026-04-30 03:47 | 0.68299 | -161.90617 | 33868 ft | 457 kts | 260° |
| 2026-04-30 03:47 | 0.67256 | -161.96881 | 33860 ft | 457 kts | 260° |
| 2026-04-30 03:48 | 0.66211 | -162.03151 | 33863 ft | 457 kts | 260° |
| 2026-04-30 03:48 | 0.65178 | -162.09385 | 33864 ft | 458 kts | 261° |
| 2026-04-30 03:49 | 0.64132 | -162.15659 | 33865 ft | 458 kts | 260° |
| 2026-04-30 03:49 | 0.63082 | -162.21940 | 33862 ft | 458 kts | 260° |
| 2026-04-30 03:50 | 0.62035 | -162.28216 | 33865 ft | 458 kts | 260° |
| 2026-04-30 03:50 | 0.60988 | -162.34501 | 33868 ft | 458 kts | 260° |
| 2026-04-30 03:51 | 0.59942 | -162.40779 | 33863 ft | 458 kts | 260° |
| 2026-04-30 03:51 | 0.58902 | -162.47062 | 33864 ft | 458 kts | 261° |
| 2026-04-30 03:52 | 0.57861 | -162.53333 | 33866 ft | 458 kts | 260° |
| 2026-04-30 03:52 | 0.56814 | -162.59614 | 33862 ft | 458 kts | 260° |
| 2026-04-30 03:53 | 0.55771 | -162.65886 | 33863 ft | 458 kts | 260° |
| 2026-04-30 03:53 | 0.54722 | -162.72163 | 33867 ft | 458 kts | 260° |
| 2026-04-30 03:54 | 0.53671 | -162.78446 | 33865 ft | 458 kts | 260° |
| 2026-04-30 03:54 | 0.52627 | -162.84689 | 33865 ft | 458 kts | 260° |
| 2026-04-30 03:55 | 0.51575 | -162.90974 | 33866 ft | 458 kts | 260° |
| 2026-04-30 03:55 | 0.50525 | -162.97270 | 33864 ft | 459 kts | 260° |
| 2026-04-30 03:56 | 0.49476 | -163.03564 | 33865 ft | 459 kts | 260° |
| 2026-04-30 03:56 | 0.48427 | -163.09857 | 33864 ft | 459 kts | 260° |
| 2026-04-30 03:57 | 0.47378 | -163.16146 | 33866 ft | 459 kts | 260° |
| 2026-04-30 03:57 | 0.46329 | -163.22437 | 33871 ft | 459 kts | 260° |
| 2026-04-30 03:58 | 0.45280 | -163.28728 | 33867 ft | 459 kts | 260° |
| 2026-04-30 03:58 | 0.44230 | -163.35020 | 33867 ft | 458 kts | 260° |
| 2026-04-30 03:59 | 0.43192 | -163.41258 | 33870 ft | 458 kts | 260° |
| 2026-04-30 03:59 | 0.42151 | -163.47539 | 33865 ft | 457 kts | 259° |
| 2026-04-30 04:00 | 0.41099 | -163.53805 | 33868 ft | 457 kts | 259° |
| 2026-04-30 04:00 | 0.40054 | -163.60054 | 33864 ft | 456 kts | 260° |
| 2026-04-30 04:01 | 0.39009 | -163.66317 | 33863 ft | 456 kts | 260° |
| 2026-04-30 04:01 | 0.37968 | -163.72559 | 33869 ft | 455 kts | 260° |
| 2026-04-30 04:02 | 0.36928 | -163.78791 | 33870 ft | 454 kts | 260° |
| 2026-04-30 04:02 | 0.35889 | -163.85018 | 33869 ft | 454 kts | 260° |
| 2026-04-30 04:03 | 0.34857 | -163.91232 | 33866 ft | 453 kts | 260° |
| 2026-04-30 04:03 | 0.33819 | -163.97448 | 33871 ft | 453 kts | 260° |
| 2026-04-30 04:04 | 0.32787 | -164.03613 | 33866 ft | 453 kts | 260° |
| 2026-04-30 04:04 | 0.31748 | -164.09828 | 33866 ft | 453 kts | 260° |
| 2026-04-30 04:05 | 0.30712 | -164.16037 | 33868 ft | 453 kts | 260° |
| 2026-04-30 04:05 | 0.29675 | -164.22257 | 33872 ft | 453 kts | 260° |
| 2026-04-30 04:06 | 0.28639 | -164.28471 | 33868 ft | 454 kts | 260° |
| 2026-04-30 04:06 | 0.27600 | -164.34688 | 33866 ft | 454 kts | 261° |
| 2026-04-30 04:07 | 0.26569 | -164.40912 | 33865 ft | 454 kts | 261° |
| 2026-04-30 04:08 | 0.25014 | -164.50252 | 33862 ft | 454 kts | 261° |
| 2026-04-30 04:08 | 0.23974 | -164.56483 | 33868 ft | 455 kts | 261° |
| 2026-04-30 04:09 | 0.22933 | -164.62715 | 33871 ft | 455 kts | 261° |
| 2026-04-30 04:09 | 0.21891 | -164.68957 | 33876 ft | 455 kts | 261° |
| 2026-04-30 04:10 | 0.20849 | -164.75198 | 33867 ft | 456 kts | 261° |
| 2026-04-30 04:10 | 0.19803 | -164.81445 | 33870 ft | 456 kts | 261° |
| 2026-04-30 04:11 | 0.18760 | -164.87704 | 33868 ft | 457 kts | 261° |
| 2026-04-30 04:11 | 0.17708 | -164.93966 | 33868 ft | 457 kts | 260° |
| 2026-04-30 04:12 | 0.16664 | -165.00192 | 33862 ft | 457 kts | 260° |
| 2026-04-30 04:12 | 0.15616 | -165.06466 | 33870 ft | 458 kts | 261° |
| 2026-04-30 04:13 | 0.14568 | -165.12751 | 33870 ft | 458 kts | 261° |
| 2026-04-30 04:13 | 0.13529 | -165.19026 | 33863 ft | 458 kts | 260° |
| 2026-04-30 04:14 | 0.12482 | -165.25300 | 33869 ft | 458 kts | 261° |
| 2026-04-30 04:14 | 0.11432 | -165.31584 | 33864 ft | 458 kts | 261° |
| 2026-04-30 04:15 | 0.10383 | -165.37866 | 33868 ft | 458 kts | 260° |
| 2026-04-30 04:15 | 0.09510 | -165.43084 | 33874 ft | 458 kts | 261° |
| 2026-04-30 04:16 | 0.08463 | -165.49371 | 33866 ft | 459 kts | 261° |
| 2026-04-30 04:16 | 0.07414 | -165.55656 | 33867 ft | 459 kts | 261° |
| 2026-04-30 04:17 | 0.06363 | -165.61949 | 33863 ft | 459 kts | 261° |
| 2026-04-30 04:17 | 0.05303 | -165.68253 | 33867 ft | 460 kts | 260° |
| 2026-04-30 04:18 | 0.04251 | -165.74556 | 33864 ft | 460 kts | 260° |
| 2026-04-30 04:18 | 0.03197 | -165.80860 | 33866 ft | 460 kts | 261° |
| 2026-04-30 04:19 | 0.02153 | -165.87131 | 33867 ft | 460 kts | 261° |
| 2026-04-30 04:19 | 0.01095 | -165.93448 | 33873 ft | 461 kts | 260° |
| 2026-04-30 04:20 | 0.00034 | -165.99763 | 33879 ft | 461 kts | 259° |
| 2026-04-30 04:20 | -0.01389 | -166.06004 | 33873 ft | 461 kts | 256° |
| 2026-04-30 04:21 | -0.02996 | -166.12210 | 33865 ft | 461 kts | 256° |
| 2026-04-30 04:21 | -0.04600 | -166.18431 | 33875 ft | 461 kts | 256° |
| 2026-04-30 04:22 | -0.06172 | -166.24648 | 33870 ft | 461 kts | 256° |
| 2026-04-30 04:22 | -0.07729 | -166.30862 | 33868 ft | 461 kts | 256° |
| 2026-04-30 04:23 | -0.09270 | -166.37037 | 33869 ft | 461 kts | 256° |
| 2026-04-30 04:23 | -0.10817 | -166.43242 | 33870 ft | 460 kts | 256° |
| 2026-04-30 04:24 | -0.12368 | -166.49455 | 33865 ft | 460 kts | 256° |
| 2026-04-30 04:24 | -0.13925 | -166.55652 | 33865 ft | 460 kts | 256° |
| 2026-04-30 04:25 | -0.15479 | -166.61849 | 33863 ft | 459 kts | 256° |
| 2026-04-30 04:25 | -0.17030 | -166.68045 | 33866 ft | 459 kts | 256° |
| 2026-04-30 04:26 | -0.18579 | -166.74237 | 33864 ft | 459 kts | 256° |
| 2026-04-30 04:26 | -0.20127 | -166.80426 | 33864 ft | 459 kts | 256° |
| 2026-04-30 04:27 | -0.21666 | -166.86578 | 33865 ft | 459 kts | 256° |
| 2026-04-30 04:27 | -0.23220 | -166.92813 | 33864 ft | 459 kts | 256° |
| 2026-04-30 04:28 | -0.24751 | -166.98960 | 33863 ft | 459 kts | 256° |
| 2026-04-30 04:28 | -0.26305 | -167.05156 | 33866 ft | 459 kts | 256° |
| 2026-04-30 04:29 | -0.27862 | -167.11344 | 33864 ft | 459 kts | 256° |
| 2026-04-30 04:29 | -0.29414 | -167.17539 | 33863 ft | 460 kts | 256° |
| 2026-04-30 04:30 | -0.30963 | -167.23736 | 33866 ft | 460 kts | 256° |
| 2026-04-30 04:30 | -0.32512 | -167.29930 | 33865 ft | 460 kts | 256° |
| 2026-04-30 04:31 | -0.34065 | -167.36137 | 33865 ft | 460 kts | 256° |
| 2026-04-30 04:31 | -0.35613 | -167.42337 | 33871 ft | 460 kts | 256° |
| 2026-04-30 04:32 | -0.37171 | -167.48559 | 33872 ft | 460 kts | 256° |
| 2026-04-30 04:32 | -0.38713 | -167.54720 | 33867 ft | 460 kts | 256° |
| 2026-04-30 04:33 | -0.40262 | -167.60936 | 33864 ft | 461 kts | 256° |
| 2026-04-30 04:33 | -0.41819 | -167.67149 | 33871 ft | 461 kts | 256° |
| 2026-04-30 04:34 | -0.43376 | -167.73363 | 33863 ft | 461 kts | 256° |
| 2026-04-30 04:34 | -0.44927 | -167.79569 | 33869 ft | 461 kts | 256° |
| 2026-04-30 04:35 | -0.46484 | -167.85792 | 33865 ft | 461 kts | 256° |
| 2026-04-30 04:35 | -0.48038 | -167.92007 | 33865 ft | 461 kts | 256° |
| 2026-04-30 04:36 | -0.49592 | -167.98221 | 33864 ft | 461 kts | 256° |
| 2026-04-30 04:36 | -0.51147 | -168.04440 | 33869 ft | 461 kts | 256° |
| 2026-04-30 04:37 | -0.52691 | -168.10624 | 33863 ft | 461 kts | 256° |
| 2026-04-30 04:37 | -0.54245 | -168.16842 | 33868 ft | 461 kts | 256° |
| 2026-04-30 04:38 | -0.55803 | -168.23066 | 33863 ft | 461 kts | 256° |
| 2026-04-30 04:38 | -0.57359 | -168.29289 | 33863 ft | 462 kts | 256° |
| 2026-04-30 04:39 | -0.58918 | -168.35520 | 33864 ft | 462 kts | 256° |
| 2026-04-30 04:39 | -0.60473 | -168.41739 | 33864 ft | 462 kts | 256° |
| 2026-04-30 04:40 | -0.62030 | -168.47970 | 33865 ft | 462 kts | 256° |
| 2026-04-30 04:40 | -0.63587 | -168.54200 | 33862 ft | 462 kts | 256° |
| 2026-04-30 04:41 | -0.65134 | -168.60389 | 33862 ft | 462 kts | 256° |
| 2026-04-30 04:41 | -0.66691 | -168.66616 | 33861 ft | 462 kts | 256° |
| 2026-04-30 04:42 | -0.68248 | -168.72845 | 33873 ft | 462 kts | 256° |
| 2026-04-30 04:42 | -0.69801 | -168.79060 | 33860 ft | 461 kts | 256° |
| 2026-04-30 04:43 | -0.71350 | -168.85260 | 33864 ft | 459 kts | 256° |
| 2026-04-30 04:43 | -0.72892 | -168.91431 | 33856 ft | 457 kts | 256° |
| 2026-04-30 04:44 | -0.74429 | -168.97584 | 33858 ft | 455 kts | 257° |
| 2026-04-30 04:44 | -0.75960 | -169.03712 | 33859 ft | 454 kts | 257° |
| 2026-04-30 04:45 | -0.77486 | -169.09820 | 33862 ft | 453 kts | 257° |
| 2026-04-30 04:45 | -0.79013 | -169.15935 | 33861 ft | 453 kts | 257° |
| 2026-04-30 04:46 | -0.80544 | -169.22062 | 33862 ft | 454 kts | 257° |
| 2026-04-30 04:46 | -0.82065 | -169.28151 | 33862 ft | 455 kts | 257° |
| 2026-04-30 04:47 | -0.83600 | -169.34296 | 33871 ft | 456 kts | 257° |
| 2026-04-30 04:47 | -0.85139 | -169.40461 | 33858 ft | 458 kts | 257° |
| 2026-04-30 04:48 | -0.86683 | -169.46643 | 33866 ft | 459 kts | 257° |
| 2026-04-30 04:48 | -0.88231 | -169.52845 | 33867 ft | 460 kts | 257° |
| 2026-04-30 04:49 | -0.89783 | -169.59063 | 33860 ft | 461 kts | 257° |
| 2026-04-30 04:49 | -0.91339 | -169.65295 | 33857 ft | 462 kts | 257° |
| 2026-04-30 04:50 | -0.92893 | -169.71520 | 33859 ft | 462 kts | 257° |
| 2026-04-30 04:50 | -0.94450 | -169.77756 | 33856 ft | 462 kts | 257° |
| 2026-04-30 04:51 | -0.96005 | -169.83988 | 33861 ft | 462 kts | 257° |
| 2026-04-30 04:51 | -0.97548 | -169.90188 | 33855 ft | 462 kts | 257° |
| 2026-04-30 04:52 | -0.99101 | -169.96415 | 33859 ft | 462 kts | 257° |
| 2026-04-30 04:52 | -1.00121 | -170.02723 | 33850 ft | 460 kts | 270° |
| 2026-04-30 04:53 | -1.00089 | -170.09114 | 33855 ft | 460 kts | 271° |
| 2026-04-30 04:53 | -1.00028 | -170.15501 | 33858 ft | 460 kts | 270° |
| 2026-04-30 04:54 | -1.00010 | -170.21894 | 33858 ft | 460 kts | 270° |
| 2026-04-30 04:54 | -1.00007 | -170.28293 | 33858 ft | 460 kts | 270° |
| 2026-04-30 04:55 | -1.00020 | -170.34687 | 33854 ft | 461 kts | 270° |
| 2026-04-30 04:55 | -1.00029 | -170.41100 | 33863 ft | 461 kts | 270° |
| 2026-04-30 04:56 | -1.00034 | -170.47467 | 33851 ft | 461 kts | 270° |
| 2026-04-30 04:56 | -1.00037 | -170.53887 | 33855 ft | 462 kts | 270° |
| 2026-04-30 04:57 | -1.00041 | -170.60304 | 33855 ft | 462 kts | 270° |
| 2026-04-30 04:57 | -1.00044 | -170.66729 | 33854 ft | 462 kts | 270° |
| 2026-04-30 04:58 | -1.00048 | -170.73151 | 33851 ft | 462 kts | 270° |
| 2026-04-30 04:58 | -1.00051 | -170.79586 | 33853 ft | 463 kts | 270° |
| 2026-04-30 04:59 | -1.00054 | -170.86016 | 33855 ft | 463 kts | 270° |
| 2026-04-30 04:59 | -1.00057 | -170.92451 | 33853 ft | 463 kts | 270° |
| 2026-04-30 05:00 | -1.00060 | -170.97801 | 33852 ft | 463 kts | 270° |
| 2026-04-30 05:00 | -1.00063 | -171.05278 | 33855 ft | 463 kts | 270° |
| 2026-04-30 05:01 | -1.00066 | -171.10629 | 33853 ft | 463 kts | 270° |
| 2026-04-30 05:01 | -1.00068 | -171.17047 | 33861 ft | 462 kts | 270° |
| 2026-04-30 05:02 | -1.00071 | -171.23479 | 33865 ft | 462 kts | 270° |
| 2026-04-30 05:02 | -1.00073 | -171.29903 | 33861 ft | 463 kts | 270° |
| 2026-04-30 05:03 | -1.00076 | -171.36349 | 33857 ft | 463 kts | 270° |
| 2026-04-30 05:03 | -1.00078 | -171.42780 | 33857 ft | 463 kts | 270° |
| 2026-04-30 05:04 | -1.00080 | -171.49173 | 33861 ft | 463 kts | 270° |
| 2026-04-30 05:04 | -1.00082 | -171.55603 | 33860 ft | 463 kts | 270° |
| 2026-04-30 05:05 | -1.00084 | -171.62048 | 33855 ft | 463 kts | 270° |
| 2026-04-30 05:05 | -1.00085 | -171.68482 | 33855 ft | 463 kts | 270° |
| 2026-04-30 05:06 | -1.00087 | -171.78149 | 33851 ft | 463 kts | 270° |
| 2026-04-30 05:06 | -1.00089 | -171.84590 | 33852 ft | 463 kts | 270° |
| 2026-04-30 05:07 | -1.00090 | -171.91030 | 33857 ft | 463 kts | 270° |
| 2026-04-30 05:07 | -1.00091 | -171.97426 | 33856 ft | 463 kts | 270° |
| 2026-04-30 05:08 | -1.00092 | -172.03865 | 33857 ft | 463 kts | 270° |
| 2026-04-30 05:08 | -1.00093 | -172.10294 | 33857 ft | 463 kts | 270° |
| 2026-04-30 05:09 | -1.00094 | -172.16741 | 33859 ft | 463 kts | 270° |
| 2026-04-30 05:09 | -1.00094 | -172.23170 | 33857 ft | 463 kts | 270° |
| 2026-04-30 05:10 | -1.00095 | -172.29609 | 33856 ft | 463 kts | 270° |
| 2026-04-30 05:10 | -1.00095 | -172.36034 | 33858 ft | 463 kts | 270° |
| 2026-04-30 05:11 | -1.00095 | -172.42463 | 33858 ft | 462 kts | 270° |
| 2026-04-30 05:11 | -1.00095 | -172.48892 | 33855 ft | 463 kts | 270° |
| 2026-04-30 05:12 | -1.00095 | -172.55319 | 33859 ft | 462 kts | 270° |
| 2026-04-30 05:12 | -1.00095 | -172.61703 | 33857 ft | 463 kts | 270° |
| 2026-04-30 05:13 | -1.00095 | -172.68139 | 33859 ft | 463 kts | 270° |
| 2026-04-30 05:13 | -1.00095 | -172.74570 | 33860 ft | 463 kts | 270° |
| 2026-04-30 05:14 | -1.00094 | -172.81001 | 33861 ft | 463 kts | 270° |
| 2026-04-30 05:14 | -1.00093 | -172.87429 | 33862 ft | 463 kts | 270° |
| 2026-04-30 05:15 | -1.00093 | -172.93868 | 33861 ft | 463 kts | 270° |
| 2026-04-30 05:15 | -1.00092 | -173.00263 | 33860 ft | 463 kts | 270° |
| 2026-04-30 05:16 | -1.00091 | -173.06737 | 33861 ft | 463 kts | 270° |
| 2026-04-30 05:16 | -1.00088 | -173.13126 | 33858 ft | 463 kts | 270° |
| 2026-04-30 05:17 | -1.00087 | -173.19572 | 33860 ft | 463 kts | 270° |
| 2026-04-30 05:17 | -1.00086 | -173.26004 | 33866 ft | 463 kts | 270° |
| 2026-04-30 05:18 | -1.00077 | -173.32451 | 33857 ft | 463 kts | 270° |
| 2026-04-30 05:18 | -1.00080 | -173.38887 | 33862 ft | 463 kts | 270° |
| 2026-04-30 05:19 | -1.00079 | -173.45326 | 33859 ft | 463 kts | 270° |
| 2026-04-30 05:19 | -1.00072 | -173.51762 | 33861 ft | 463 kts | 270° |
| 2026-04-30 05:20 | -1.00069 | -173.58195 | 33858 ft | 463 kts | 270° |
| 2026-04-30 05:20 | -1.00071 | -173.64627 | 33857 ft | 463 kts | 270° |
| 2026-04-30 05:21 | -1.00073 | -173.71018 | 33861 ft | 463 kts | 270° |
| 2026-04-30 05:21 | -1.00068 | -173.77464 | 33853 ft | 463 kts | 270° |
| 2026-04-30 05:22 | -1.00066 | -173.83899 | 33862 ft | 463 kts | 270° |
| 2026-04-30 05:22 | -1.00065 | -173.90344 | 33855 ft | 464 kts | 270° |
| 2026-04-30 05:23 | -1.00063 | -173.96789 | 33861 ft | 464 kts | 270° |
| 2026-04-30 05:23 | -1.00060 | -174.03244 | 33859 ft | 465 kts | 270° |
| 2026-04-30 05:24 | -1.00056 | -174.09708 | 33857 ft | 465 kts | 270° |
| 2026-04-30 05:24 | -1.00045 | -174.16186 | 33857 ft | 466 kts | 270° |
| 2026-04-30 05:25 | -1.00038 | -174.22650 | 33859 ft | 466 kts | 270° |
| 2026-04-30 05:25 | -1.00037 | -174.29135 | 33858 ft | 467 kts | 270° |
| 2026-04-30 05:26 | -1.00038 | -174.35618 | 33855 ft | 467 kts | 270° |
| 2026-04-30 05:26 | -1.00029 | -174.42111 | 33857 ft | 467 kts | 270° |
| 2026-04-30 05:27 | -1.00024 | -174.48568 | 33857 ft | 467 kts | 270° |
| 2026-04-30 05:27 | -1.00020 | -174.55066 | 33857 ft | 467 kts | 270° |
| 2026-04-30 05:28 | -1.00018 | -174.61558 | 33857 ft | 467 kts | 270° |
| 2026-04-30 05:28 | -1.00015 | -174.68056 | 33856 ft | 467 kts | 270° |
| 2026-04-30 05:29 | -1.00010 | -174.74542 | 33859 ft | 467 kts | 270° |
| 2026-04-30 05:29 | -1.00007 | -174.81048 | 33860 ft | 467 kts | 270° |
| 2026-04-30 05:30 | -1.00008 | -174.87529 | 33858 ft | 467 kts | 270° |
| 2026-04-30 05:30 | -1.00004 | -174.94018 | 33856 ft | 466 kts | 270° |
| 2026-04-30 05:31 | -0.99903 | -175.00492 | 33850 ft | 466 kts | 276° |
| 2026-04-30 05:31 | -0.98753 | -175.06861 | 33857 ft | 466 kts | 282° |
| 2026-04-30 05:32 | -0.97421 | -175.13196 | 33860 ft | 466 kts | 282° |
| 2026-04-30 05:32 | -0.96119 | -175.19491 | 33860 ft | 465 kts | 281° |
| 2026-04-30 05:33 | -0.94836 | -175.25829 | 33857 ft | 465 kts | 281° |
| 2026-04-30 05:33 | -0.93575 | -175.32164 | 33858 ft | 465 kts | 281° |
| 2026-04-30 05:34 | -0.92314 | -175.38506 | 33855 ft | 464 kts | 281° |
| 2026-04-30 05:34 | -0.91053 | -175.44834 | 33855 ft | 464 kts | 281° |
| 2026-04-30 05:35 | -0.89790 | -175.51162 | 33855 ft | 464 kts | 281° |
| 2026-04-30 05:35 | -0.88524 | -175.57494 | 33855 ft | 463 kts | 281° |
| 2026-04-30 05:36 | -0.87262 | -175.63772 | 33855 ft | 463 kts | 281° |
| 2026-04-30 05:36 | -0.85998 | -175.70080 | 33855 ft | 463 kts | 281° |
| 2026-04-30 05:37 | -0.84739 | -175.76385 | 33853 ft | 462 kts | 281° |
| 2026-04-30 05:37 | -0.83482 | -175.82681 | 33855 ft | 462 kts | 281° |
| 2026-04-30 05:38 | -0.82224 | -175.88985 | 33855 ft | 462 kts | 281° |
| 2026-04-30 05:38 | -0.80966 | -175.95280 | 33853 ft | 462 kts | 281° |
| 2026-04-30 05:39 | -0.79709 | -176.01575 | 33856 ft | 462 kts | 281° |
| 2026-04-30 05:39 | -0.78451 | -176.07881 | 33856 ft | 463 kts | 281° |
| 2026-04-30 05:40 | -0.77200 | -176.14191 | 33858 ft | 463 kts | 281° |
| 2026-04-30 05:40 | -0.75946 | -176.20473 | 33855 ft | 464 kts | 282° |
| 2026-04-30 05:41 | -0.74674 | -176.26793 | 33851 ft | 464 kts | 282° |
| 2026-04-30 05:41 | -0.73405 | -176.33122 | 33852 ft | 465 kts | 282° |
| 2026-04-30 05:42 | -0.72141 | -176.39454 | 33855 ft | 465 kts | 281° |
| 2026-04-30 05:42 | -0.70883 | -176.45793 | 33854 ft | 465 kts | 281° |
| 2026-04-30 05:43 | -0.69620 | -176.52137 | 33858 ft | 466 kts | 282° |
| 2026-04-30 05:43 | -0.68347 | -176.58494 | 33857 ft | 466 kts | 282° |
| 2026-04-30 05:44 | -0.67075 | -176.64843 | 33853 ft | 466 kts | 282° |
| 2026-04-30 05:44 | -0.66014 | -176.70119 | 33854 ft | 466 kts | 282° |
| 2026-04-30 05:45 | -0.64749 | -176.76472 | 33855 ft | 466 kts | 281° |
| 2026-04-30 05:45 | -0.63485 | -176.82824 | 33854 ft | 466 kts | 282° |
| 2026-04-30 05:46 | -0.62214 | -176.89186 | 33852 ft | 466 kts | 282° |
| 2026-04-30 05:46 | -0.60943 | -176.95538 | 33854 ft | 466 kts | 282° |
| 2026-04-30 05:47 | -0.59671 | -177.01900 | 33853 ft | 467 kts | 282° |
| 2026-04-30 05:47 | -0.58399 | -177.08258 | 33853 ft | 467 kts | 282° |
| 2026-04-30 05:48 | -0.57128 | -177.14612 | 33855 ft | 467 kts | 282° |
| 2026-04-30 05:48 | -0.55864 | -177.20931 | 33855 ft | 467 kts | 282° |
| 2026-04-30 05:49 | -0.54583 | -177.27338 | 33855 ft | 467 kts | 282° |
| 2026-04-30 05:49 | -0.53321 | -177.33646 | 33852 ft | 467 kts | 282° |
| 2026-04-30 05:50 | -0.52047 | -177.40017 | 33855 ft | 467 kts | 282° |
| 2026-04-30 05:50 | -0.50774 | -177.46380 | 33858 ft | 467 kts | 282° |
| 2026-04-30 05:51 | -0.49498 | -177.52754 | 33851 ft | 467 kts | 282° |
| 2026-04-30 05:51 | -0.48235 | -177.59070 | 33856 ft | 467 kts | 282° |
| 2026-04-30 05:52 | -0.46961 | -177.65434 | 33856 ft | 467 kts | 282° |
| 2026-04-30 05:52 | -0.45686 | -177.71792 | 33853 ft | 467 kts | 282° |
| 2026-04-30 05:53 | -0.44415 | -177.78151 | 33854 ft | 467 kts | 282° |
| 2026-04-30 05:53 | -0.43138 | -177.84508 | 33854 ft | 467 kts | 282° |
| 2026-04-30 05:54 | -0.41862 | -177.90867 | 33857 ft | 466 kts | 282° |
| 2026-04-30 05:54 | -0.40594 | -177.97224 | 33856 ft | 466 kts | 282° |
| 2026-04-30 05:55 | -0.39322 | -178.03583 | 33854 ft | 466 kts | 282° |
| 2026-04-30 05:55 | -0.38054 | -178.09934 | 33854 ft | 466 kts | 282° |
| 2026-04-30 05:56 | -0.36786 | -178.16256 | 33853 ft | 467 kts | 282° |
| 2026-04-30 05:56 | -0.35517 | -178.22611 | 33853 ft | 467 kts | 282° |
| 2026-04-30 05:57 | -0.34244 | -178.28979 | 33852 ft | 467 kts | 282° |
| 2026-04-30 05:57 | -0.32967 | -178.35358 | 33854 ft | 468 kts | 282° |
| 2026-04-30 05:58 | -0.31691 | -178.41729 | 33857 ft | 468 kts | 282° |
| 2026-04-30 05:58 | -0.30416 | -178.48100 | 33855 ft | 468 kts | 282° |
| 2026-04-30 05:59 | -0.29137 | -178.54485 | 33855 ft | 468 kts | 282° |
| 2026-04-30 05:59 | -0.27870 | -178.60814 | 33854 ft | 468 kts | 282° |
| 2026-04-30 06:00 | -0.26591 | -178.67204 | 33855 ft | 468 kts | 282° |
| 2026-04-30 06:00 | -0.25315 | -178.73575 | 33853 ft | 468 kts | 282° |
| 2026-04-30 06:01 | -0.24038 | -178.79955 | 33854 ft | 467 kts | 282° |